Time;durP1;ratioP1;P1;durP2;ratioP2;P2;SDS_P1;SDS_P2;PMS_P1;PMS_P2;Temp;Humidity;BMP_temperature;BMP_pressure;BME280_temperature;BME280_humidity;BME280_pressure;Samples;Min_cycle;Max_cycle;Signal;HPM_P1;HPM_P2
2024/02/29 00:01:37;;;;;;;41.30;22.00;;;4.40;81.50;;;6.21;57.98;97904.78;5032560;28;20499;-61
2024/02/29 00:04:05;;;;;;;38.27;20.93;;;4.30;80.70;;;6.19;57.82;97890.84;5032787;28;20049;-61
2024/02/29 00:06:34;;;;;;;43.93;20.47;;;4.30;80.70;;;6.16;58.03;97899.03;5015159;28;20425;-62
2024/02/29 00:09:02;;;;;;;37.70;20.40;;;4.20;80.50;;;6.14;57.33;97892.19;5032136;28;20045;-62
2024/02/29 00:11:30;;;;;;;33.87;20.03;;;4.20;80.40;;;6.10;57.25;97886.31;5031459;28;20395;-62
2024/02/29 00:13:57;;;;;;;47.50;22.87;;;4.20;81.30;;;6.08;57.74;97889.09;5024288;28;20041;-61
2024/02/29 00:16:25;;;;;;;37.50;20.63;;;4.20;82.10;;;6.07;57.75;97884.78;5032062;28;20048;-62
2024/02/29 00:18:53;;;;;;;36.10;20.93;;;4.20;81.60;;;6.06;57.59;97885.72;5031731;28;20514;-61
2024/02/29 00:21:20;;;;;;;39.90;20.90;;;4.20;81.30;;;6.06;57.64;97885.72;5014644;28;20045;-61
2024/02/29 00:23:48;;;;;;;38.17;20.13;;;4.20;81.50;;;6.01;57.54;97884.44;5032101;28;20417;-62
2024/02/29 00:26:16;;;;;;;39.13;20.20;;;4.10;82.20;;;5.99;57.53;97884.56;5031901;28;20045;-62
2024/02/29 00:28:43;;;;;;;35.37;19.87;;;4.00;81.80;;;5.98;58.20;97880.25;5031953;28;20525;-61
2024/02/29 00:31:11;;;;;;;43.27;21.37;;;4.00;81.10;;;5.96;57.48;97887.47;5014796;28;20049;-61
2024/02/29 00:33:40;;;;;;;37.60;19.07;;;4.00;80.90;;;5.93;57.47;97879.75;5032190;28;20048;-61
2024/02/29 00:36:08;;;;;;;39.97;20.70;;;3.90;80.90;;;5.87;57.52;97881.09;5032281;28;20041;-61
2024/02/29 00:38:38;;;;;;;42.73;21.73;;;3.90;81.10;;;5.85;56.97;97869.78;5014299;28;20033;-61
2024/02/29 00:41:06;;;;;;;42.37;21.37;;;3.90;81.40;;;5.83;57.60;97878.81;5031950;28;20045;-61
2024/02/29 00:43:34;;;;;;;43.30;22.23;;;3.80;81.40;;;5.79;57.62;97872.94;5031191;28;20042;-62
2024/02/29 00:46:02;;;;;;;42.70;22.63;;;3.90;81.50;;;5.77;57.36;97869.59;5032144;28;20422;-61
2024/02/29 00:48:30;;;;;;;38.73;18.97;;;3.80;80.60;;;5.74;57.22;97864.59;5031521;28;20045;-61
2024/02/29 00:50:58;;;;;;;39.87;21.07;;;3.80;80.20;;;5.68;57.43;97855.34;5031720;28;20521;-61
2024/02/29 00:53:25;;;;;;;35.87;19.57;;;3.80;79.90;;;5.65;57.78;97852.13;5031847;28;20045;-61
2024/02/29 00:55:53;;;;;;;35.40;22.30;;;3.70;80.20;;;5.65;57.70;97852.94;4997949;28;20037;-61
2024/02/29 00:58:21;;;;;;;36.13;19.43;;;3.70;81.50;;;5.64;58.07;97845.13;5031197;28;20037;-61
2024/02/29 01:00:48;;;;;;;38.53;20.10;;;3.70;82.20;;;5.62;57.47;97853.22;5031271;28;20048;-61
2024/02/29 01:03:16;;;;;;;33.27;18.67;;;3.70;82.20;;;5.61;58.11;97855.97;5032110;28;20037;-61
2024/02/29 01:05:44;;;;;;;37.57;18.97;;;3.60;83.00;;;5.61;58.58;97859.44;5031391;28;20044;-61
2024/02/29 01:08:11;;;;;;;36.87;19.57;;;3.70;83.20;;;5.61;57.53;97851.53;5031087;28;20038;-61
2024/02/29 01:10:39;;;;;;;33.73;20.20;;;3.70;82.70;;;5.58;58.23;97854.41;5031577;28;20502;-61
2024/02/29 01:13:08;;;;;;;36.50;18.77;;;3.60;81.50;;;5.53;58.01;97854.78;5032068;28;20104;-61
2024/02/29 01:15:36;;;;;;;32.23;18.80;;;3.60;81.50;;;5.51;57.51;97850.59;5031370;28;20041;-61
2024/02/29 01:18:05;;;;;;;38.20;20.17;;;3.60;80.90;;;5.48;57.95;97848.19;5030924;28;20121;-61
2024/02/29 01:20:33;;;;;;;34.97;17.37;;;3.50;80.60;;;5.43;57.29;97848.59;4998256;28;20205;-61
2024/02/29 01:23:01;;;;;;;37.30;19.70;;;3.40;80.80;;;5.40;57.41;97846.19;5029545;28;20041;-61
2024/02/29 01:25:29;;;;;;;36.63;20.50;;;3.40;81.40;;;5.41;57.57;97841.72;5030452;28;20525;-61
2024/02/29 01:27:57;;;;;;;31.83;17.30;;;3.40;81.50;;;5.41;57.95;97839.94;5005437;28;20422;-61
2024/02/29 01:30:25;;;;;;;35.73;18.60;;;3.50;81.50;;;5.39;57.13;97831.31;5031087;28;20044;-61
2024/02/29 01:32:52;;;;;;;38.20;19.00;;;3.50;80.90;;;5.37;57.57;97821.81;5031105;28;20058;-61
2024/02/29 01:35:20;;;;;;;35.63;18.03;;;3.40;80.90;;;5.33;57.76;97819.44;5031103;28;20526;-61
2024/02/29 01:37:48;;;;;;;39.70;19.27;;;3.40;81.10;;;5.31;57.67;97809.94;5030916;28;20049;-61
2024/02/29 01:40:18;;;;;;;41.10;19.77;;;3.40;81.20;;;5.32;58.21;97817.75;5030981;28;20041;-61
2024/02/29 01:42:46;;;;;;;34.00;18.10;;;3.40;82.00;;;5.32;57.76;97806.34;5013519;28;20037;-61
2024/02/29 01:45:16;;;;;;;36.83;19.30;;;3.50;82.80;;;5.35;58.40;97806.13;5013556;28;20418;-61
2024/02/29 01:47:44;;;;;;;37.77;21.83;;;3.50;83.20;;;5.38;58.56;97810.31;5030399;28;20045;-61
2024/02/29 01:50:13;;;;;;;31.37;18.50;;;3.50;83.90;;;5.37;58.13;97798.06;5031016;28;20038;-61
2024/02/29 01:52:43;;;;;;;38.53;20.43;;;3.50;84.30;;;5.37;59.13;97798.91;5013579;28;20373;-61
2024/02/29 01:55:11;;;;;;;37.17;20.67;;;3.50;84.80;;;5.38;59.05;97800.56;5036139;28;20498;-61
2024/02/29 01:57:40;;;;;;;38.20;19.03;;;3.60;84.60;;;5.42;58.88;97801.16;5019131;28;20049;-61
2024/02/29 02:00:10;;;;;;;40.17;20.60;;;3.70;84.00;;;5.44;59.09;97796.59;5037639;28;20044;-61
2024/02/29 02:02:38;;;;;;;37.10;20.00;;;3.70;83.60;;;5.45;59.36;97796.47;5037271;28;20041;-61
2024/02/29 02:05:07;;;;;;;37.43;19.33;;;3.80;83.50;;;5.49;59.38;97786.50;5037466;28;20041;-61
2024/02/29 02:07:35;;;;;;;37.20;20.33;;;3.80;83.30;;;5.51;58.84;97795.97;5037016;28;20048;-61
2024/02/29 02:10:06;;;;;;;32.77;18.07;;;3.80;83.70;;;5.50;58.66;97780.25;5019562;28;20049;-61
2024/02/29 02:12:36;;;;;;;35.83;19.90;;;3.80;83.00;;;5.49;59.25;97775.94;5037498;28;20037;-61
2024/02/29 02:15:04;;;;;;;35.33;19.60;;;3.80;83.50;;;5.46;58.74;97782.31;5037268;28;20045;-61
2024/02/29 02:17:32;;;;;;;39.50;21.20;;;3.70;83.60;;;5.44;59.42;97778.94;5019533;28;20096;-61
2024/02/29 02:20:01;;;;;;;37.47;21.13;;;3.80;83.20;;;5.42;59.50;97764.22;5037321;28;20502;-61
2024/02/29 02:22:30;;;;;;;38.70;20.33;;;3.80;84.00;;;5.40;59.48;97768.78;5037309;28;20045;-61
2024/02/29 02:24:57;;;;;;;41.37;20.97;;;3.70;84.50;;;5.41;59.80;97762.50;5037126;28;20442;-61
2024/02/29 02:27:25;;;;;;;36.23;20.70;;;3.70;84.40;;;5.40;59.98;97769.59;5037114;28;20049;-61
2024/02/29 02:29:53;;;;;;;43.27;22.10;;;3.70;84.60;;;5.42;59.43;97764.22;5018248;28;20057;-61
2024/02/29 02:32:20;;;;;;;40.63;22.53;;;3.70;84.50;;;5.40;59.53;97772.25;5036991;28;20052;-61
2024/02/29 02:34:48;;;;;;;38.67;20.43;;;3.70;84.70;;;5.40;60.07;97764.31;5036366;28;20053;-61
2024/02/29 02:37:15;;;;;;;43.00;20.27;;;3.70;85.00;;;5.42;59.84;97764.22;5037226;28;20036;-61
2024/02/29 02:39:43;;;;;;;38.57;20.40;;;3.70;84.70;;;5.40;59.81;97759.03;5036672;28;20049;-61
2024/02/29 02:42:11;;;;;;;37.93;20.33;;;3.70;84.50;;;5.40;59.69;97755.56;5037037;28;20037;-61
2024/02/29 02:44:38;;;;;;;36.53;19.13;;;3.70;85.30;;;5.42;60.34;97754.47;5037155;28;20041;-61
2024/02/29 02:47:06;;;;;;;39.27;20.80;;;3.80;84.50;;;5.45;60.15;97750.75;5037215;28;20045;-62
2024/02/29 02:49:34;;;;;;;38.10;20.17;;;3.70;84.50;;;5.47;59.55;97751.47;5010371;28;20049;-61
2024/02/29 02:52:02;;;;;;;36.73;20.33;;;3.70;84.90;;;5.46;59.97;97742.69;5036986;28;20049;-62
2024/02/29 02:54:29;;;;;;;39.07;19.60;;;3.70;84.80;;;5.46;59.89;97742.69;5036930;28;20037;-62
2024/02/29 02:56:57;;;;;;;41.93;21.13;;;3.60;84.80;;;5.45;59.15;97733.09;5037209;28;20046;-62
2024/02/29 02:59:26;;;;;;;38.80;22.63;;;3.60;84.80;;;5.44;59.73;97730.59;5036633;28;20041;-62
2024/02/29 03:01:54;;;;;;;40.27;21.43;;;3.50;85.10;;;5.42;59.42;97729.88;5036931;28;20037;-62
2024/02/29 03:04:22;;;;;;;43.23;20.13;;;3.50;85.30;;;5.40;59.75;97731.81;5036950;28;20037;-61
2024/02/29 03:06:50;;;;;;;41.13;20.20;;;3.50;85.60;;;5.37;59.63;97726.78;5032837;28;20060;-62
2024/02/29 03:09:17;;;;;;;36.07;20.57;;;3.50;86.00;;;5.37;59.72;97725.00;5033353;28;20045;-62
2024/02/29 03:11:45;;;;;;;35.47;19.40;;;3.50;86.00;;;5.39;59.50;97730.13;5033349;28;20049;-62
2024/02/29 03:14:15;;;;;;;39.60;20.67;;;3.50;85.40;;;5.37;59.94;97718.84;5033814;28;20045;-62
2024/02/29 03:16:42;;;;;;;36.03;19.33;;;3.40;85.50;;;5.38;59.25;97717.91;5016255;28;20483;-62
2024/02/29 03:19:10;;;;;;;39.27;21.00;;;3.50;85.70;;;5.38;60.00;97712.63;5033110;28;20442;-61
2024/02/29 03:21:37;;;;;;;42.70;21.23;;;3.50;85.80;;;5.40;59.09;97715.97;5033528;28;20045;-61
2024/02/29 03:24:05;;;;;;;46.77;20.57;;;3.60;85.20;;;5.41;59.29;97715.84;5033521;28;20045;-62
2024/02/29 03:26:33;;;;;;;37.47;19.80;;;3.60;85.00;;;5.40;59.45;97714.16;5032765;28;20064;-61
2024/02/29 03:29:01;;;;;;;39.03;21.90;;;3.60;85.10;;;5.39;59.58;97711.63;5032852;28;20510;-62
2024/02/29 03:31:28;;;;;;;39.27;20.87;;;3.60;84.70;;;5.35;59.17;97713.72;5033573;28;20049;-61
2024/02/29 03:33:56;;;;;;;38.13;21.83;;;3.40;84.30;;;5.33;58.92;97702.41;5033574;28;20053;-62
2024/02/29 03:36:24;;;;;;;41.80;21.00;;;3.50;85.10;;;5.33;59.37;97707.69;5033295;28;20415;-61
2024/02/29 03:38:51;;;;;;;41.27;22.57;;;3.40;84.40;;;5.29;59.10;97707.13;5032639;28;20049;-62
2024/02/29 03:41:19;;;;;;;40.83;20.50;;;3.40;84.50;;;5.27;59.20;97702.94;5033233;28;20491;-61
2024/02/29 03:43:47;;;;;;;34.80;19.00;;;3.30;84.20;;;5.23;58.85;97704.16;5033165;28;20495;-61
2024/02/29 03:46:14;;;;;;;43.50;21.70;;;3.20;83.90;;;5.17;59.24;97704.66;5032981;28;20048;-62
2024/02/29 03:48:42;;;;;;;37.43;20.23;;;3.10;84.70;;;5.11;59.53;97704.19;5032703;28;20494;-62
2024/02/29 03:51:10;;;;;;;34.87;19.93;;;3.00;84.90;;;5.07;58.76;97700.13;5033245;28;20049;-60
2024/02/29 03:53:38;;;;;;;39.70;19.00;;;3.00;85.60;;;5.08;59.07;97701.00;5033072;28;20441;-62
2024/02/29 03:56:06;;;;;;;38.33;21.23;;;3.00;85.90;;;5.08;58.76;97698.34;5032878;28;20073;-61
2024/02/29 03:58:34;;;;;;;37.80;19.97;;;3.10;84.80;;;5.07;58.77;97705.41;5032251;28;20041;-61
2024/02/29 04:01:02;;;;;;;37.80;20.67;;;3.10;84.50;;;5.05;58.55;97702.06;5032639;28;20049;-61
2024/02/29 04:03:29;;;;;;;36.37;19.13;;;3.10;83.50;;;5.04;58.76;97702.19;5032892;28;20525;-61
2024/02/29 04:05:57;;;;;;;42.73;20.97;;;3.10;83.60;;;5.02;59.21;97699.69;5031128;28;20049;-61
2024/02/29 04:08:25;;;;;;;37.53;20.30;;;3.10;83.60;;;5.01;58.61;97705.91;5032166;28;20050;-62
2024/02/29 04:10:53;;;;;;;36.13;21.10;;;3.10;83.10;;;5.00;59.13;97706.88;5032652;28;20041;-62
2024/02/29 04:13:22;;;;;;;36.60;20.33;;;3.10;82.60;;;4.94;59.04;97704.72;5032598;28;20049;-62
2024/02/29 04:15:50;;;;;;;40.83;21.30;;;3.00;82.30;;;4.91;58.95;97703.19;5032827;28;20041;-62
2024/02/29 04:18:18;;;;;;;38.70;18.67;;;2.90;82.20;;;4.85;58.72;97705.50;5031889;28;20060;-61
2024/02/29 04:20:46;;;;;;;38.80;20.50;;;2.80;82.60;;;4.83;59.08;97702.13;5032502;28;20056;-62
2024/02/29 04:23:13;;;;;;;37.13;18.97;;;2.70;83.50;;;4.81;58.79;97701.41;5014733;28;20502;-62
2024/02/29 04:25:41;;;;;;;43.53;20.43;;;2.80;83.20;;;4.80;58.66;97702.38;5012202;28;20494;-62
2024/02/29 04:28:09;;;;;;;39.00;19.60;;;2.80;83.40;;;4.77;58.28;97700.84;5031942;28;20046;-62
2024/02/29 04:30:36;;;;;;;40.93;20.73;;;2.70;84.30;;;4.73;58.99;97697.59;5032145;28;20410;-62
2024/02/29 04:33:05;;;;;;;41.03;20.37;;;2.70;85.50;;;4.70;58.64;97697.00;5032247;28;20041;-62
2024/02/29 04:35:33;;;;;;;38.00;20.20;;;2.70;86.10;;;4.68;59.14;97691.00;5031822;28;20037;-61
2024/02/29 04:38:01;;;;;;;36.23;19.73;;;2.60;86.10;;;4.66;59.00;97692.94;5031629;28;20045;-62
2024/02/29 04:40:29;;;;;;;35.73;18.83;;;2.60;86.10;;;4.62;59.16;97684.44;5014543;28;20037;-62
2024/02/29 04:42:57;;;;;;;39.03;19.90;;;2.50;85.50;;;4.59;59.05;97689.94;5032085;28;20037;-62
2024/02/29 04:45:25;;;;;;;37.50;18.13;;;2.50;86.30;;;4.59;59.80;97683.84;5032236;28;20041;-62
2024/02/29 04:47:53;;;;;;;37.47;19.97;;;2.50;86.60;;;4.57;59.75;97680.47;5031540;28;20049;-61
2024/02/29 04:50:21;;;;;;;37.20;19.27;;;2.50;87.30;;;4.57;59.31;97675.22;5031859;28;20101;-62
2024/02/29 04:52:49;;;;;;;38.53;18.83;;;2.60;87.50;;;4.57;59.68;97669.94;5031772;28;20057;-61
2024/02/29 04:55:16;;;;;;;39.00;20.57;;;2.60;87.30;;;4.56;59.26;97674.38;5031684;28;20041;-62
2024/02/29 04:57:45;;;;;;;32.60;17.63;;;2.60;87.60;;;4.59;59.67;97668.84;5031382;28;20041;-62
2024/02/29 05:00:13;;;;;;;36.63;19.00;;;2.70;87.40;;;4.63;59.99;97672.06;5031707;28;20041;-62
2024/02/29 05:02:41;;;;;;;35.23;18.87;;;2.70;86.90;;;4.68;60.08;97672.56;5014272;28;20049;-62
2024/02/29 05:05:12;;;;;;;39.07;18.60;;;2.80;86.10;;;4.60;59.97;97673.16;5031581;28;20045;-62
2024/02/29 05:07:41;;;;;;;38.13;18.17;;;2.70;85.70;;;4.54;59.97;97673.66;5031111;28;20053;-62
2024/02/29 05:10:09;;;;;;;32.47;18.17;;;2.50;86.00;;;4.53;59.45;97672.81;5013623;28;20060;-61
2024/02/29 05:12:37;;;;;;;38.03;19.17;;;2.50;86.80;;;4.58;59.17;97669.81;5030880;28;20038;-62
2024/02/29 05:15:05;;;;;;;39.00;17.90;;;2.60;86.90;;;4.60;59.67;97667.06;5031682;28;20056;-62
2024/02/29 05:17:33;;;;;;;33.90;18.77;;;2.70;86.40;;;4.62;59.31;97659.88;5030970;28;20049;-61
2024/02/29 05:20:00;;;;;;;38.03;19.13;;;2.70;85.70;;;4.61;59.49;97664.28;5031351;28;20072;-62
2024/02/29 05:22:28;;;;;;;36.07;18.07;;;2.70;85.40;;;4.63;59.57;97657.09;5031488;28;20033;-62
2024/02/29 05:24:58;;;;;;;34.73;18.27;;;2.80;85.60;;;4.66;59.77;97653.38;4997259;28;20046;-62
2024/02/29 05:27:29;;;;;;;40.17;19.53;;;2.80;85.00;;;4.65;59.11;97649.91;5031190;28;20042;-62
2024/02/29 05:29:57;;;;;;;35.23;19.33;;;2.80;84.50;;;4.65;59.24;97657.81;5030216;28;20049;-62
2024/02/29 05:32:25;;;;;;;33.37;17.00;;;2.80;84.20;;;4.66;59.42;97656.84;5031414;28;20305;-61
2024/02/29 05:34:53;;;;;;;35.00;17.60;;;2.80;84.20;;;4.65;59.13;97657.81;5031248;28;20072;-62
2024/02/29 05:37:21;;;;;;;38.70;20.67;;;2.80;84.90;;;4.65;60.01;97642.00;5005712;28;20045;-62
2024/02/29 05:39:49;;;;;;;33.23;17.87;;;2.70;85.20;;;4.66;59.69;97641.03;5030576;28;20041;-62
2024/02/29 05:42:16;;;;;;;37.90;18.77;;;2.80;85.20;;;4.67;59.26;97647.13;5030101;28;20045;-63
2024/02/29 05:44:44;;;;;;;39.40;19.13;;;2.80;85.10;;;4.67;59.81;97639.22;5031081;28;20050;-63
2024/02/29 05:47:12;;;;;;;37.43;20.73;;;2.80;85.10;;;4.66;59.83;97634.91;5030721;28;20057;-62
2024/02/29 05:49:39;;;;;;;45.87;20.90;;;2.70;85.40;;;4.67;59.80;97624.25;5030444;28;20049;-62
2024/02/29 05:52:07;;;;;;;36.43;19.40;;;2.80;85.80;;;4.67;60.21;97626.03;5030932;28;20042;-62
2024/02/29 05:54:35;;;;;;;33.53;18.93;;;2.80;85.90;;;4.69;60.48;97624.97;5030978;28;20045;-62
2024/02/29 05:57:03;;;;;;;38.93;20.97;;;2.90;86.20;;;4.72;59.92;97622.06;5030843;28;20561;-62
2024/02/29 05:59:33;;;;;;;39.37;19.20;;;2.90;85.50;;;4.74;59.74;97627.22;5029744;28;20068;-62
2024/02/29 06:02:00;;;;;;;43.03;20.83;;;2.90;85.90;;;4.76;60.17;97616.53;5013293;28;20061;-62
2024/02/29 06:04:33;;;;;;;40.20;20.57;;;2.90;85.80;;;4.74;60.03;97620.13;5015096;28;20491;-58
2024/02/29 06:07:17;;;;;;;38.20;19.13;;;2.90;86.30;;;4.74;60.79;97622.78;5035499;28;20061;-62
2024/02/29 06:09:46;;;;;;;43.83;21.50;;;2.90;86.60;;;4.72;60.83;97614.16;5030284;28;20045;-62
2024/02/29 06:12:14;;;;;;;37.80;18.63;;;2.90;87.10;;;4.74;60.19;97604.31;5030720;28;20049;-62
2024/02/29 06:14:42;;;;;;;40.70;20.00;;;3.00;86.30;;;4.78;60.28;97607.53;5030813;28;20046;-62
2024/02/29 06:17:10;;;;;;;35.50;19.13;;;3.00;86.30;;;4.78;60.39;97604.06;5030397;28;20418;-62
2024/02/29 06:19:41;;;;;;;40.63;19.87;;;3.10;86.00;;;4.79;60.68;97603.09;5030038;28;20037;-63
2024/02/29 06:22:08;;;;;;;45.77;19.80;;;3.10;85.50;;;4.80;60.34;97605.59;5012609;28;20045;-62
2024/02/29 06:24:36;;;;;;;36.93;19.93;;;3.20;85.50;;;4.83;60.45;97608.00;5030520;28;20048;-62
2024/02/29 06:27:04;;;;;;;37.37;19.27;;;3.20;85.00;;;4.87;59.70;97603.31;5030454;28;20060;-62
2024/02/29 06:29:32;;;;;;;37.43;20.67;;;3.10;85.10;;;4.90;60.33;97601.28;5029581;28;20045;-62
2024/02/29 06:32:00;;;;;;;39.70;20.93;;;3.20;85.10;;;4.91;60.19;97602.09;5030465;28;20050;-62
2024/02/29 06:34:28;;;;;;;42.73;22.17;;;3.10;85.20;;;4.93;59.93;97600.16;5023055;28;20042;-62
2024/02/29 06:36:56;;;;;;;40.87;22.07;;;3.10;85.20;;;4.95;59.82;97592.13;5030385;28;20041;-62
2024/02/29 06:39:23;;;;;;;42.13;21.37;;;3.10;84.80;;;4.91;59.66;97589.75;5030018;28;20438;-62
2024/02/29 06:41:52;;;;;;;38.63;21.00;;;3.00;84.70;;;4.90;59.41;97588.09;5032709;28;20041;-62
2024/02/29 06:44:19;;;;;;;45.67;22.60;;;3.00;84.60;;;4.90;59.75;97579.31;5034177;28;20046;-62
2024/02/29 06:46:47;;;;;;;39.70;22.10;;;3.00;84.60;;;4.89;59.47;97578.47;5033837;28;20052;-62
2024/02/29 06:49:15;;;;;;;41.57;20.27;;;3.00;85.10;;;4.89;60.21;97582.94;5033586;28;20067;-60
2024/02/29 06:51:43;;;;;;;39.07;20.17;;;3.00;85.50;;;4.87;59.93;97585.69;5033985;28;20048;-60
2024/02/29 06:54:11;;;;;;;38.70;19.93;;;3.00;86.30;;;4.83;60.58;97586.91;5016400;28;20438;-63
2024/02/29 06:56:38;;;;;;;38.17;19.90;;;3.00;86.00;;;4.85;60.20;97584.97;5033849;28;20049;-61
2024/02/29 06:59:06;;;;;;;40.13;19.63;;;3.20;86.50;;;4.89;60.30;97581.13;5033151;28;20281;-61
2024/02/29 07:01:34;;;;;;;47.33;21.33;;;3.20;86.60;;;4.98;61.00;97581.31;5016247;28;20045;-60
2024/02/29 07:04:02;;;;;;;42.10;20.97;;;3.20;86.70;;;5.01;61.08;97581.06;5034005;28;20046;-61
2024/02/29 07:06:30;;;;;;;44.33;22.27;;;3.30;86.70;;;5.07;60.21;97581.38;5026079;28;20278;-61
2024/02/29 07:08:57;;;;;;;39.67;19.57;;;3.40;86.30;;;5.12;60.83;97576.56;5033535;28;20056;-61
2024/02/29 07:11:26;;;;;;;48.97;22.10;;;3.40;86.00;;;5.15;60.43;97569.34;5033615;28;20045;-62
2024/02/29 07:13:53;;;;;;;43.53;19.77;;;3.40;86.00;;;5.15;60.25;97567.53;5015087;28;20053;-62
2024/02/29 07:16:21;;;;;;;40.13;20.63;;;3.40;86.30;;;5.16;60.68;97573.66;5015903;28;20434;-62
2024/02/29 07:18:49;;;;;;;40.10;20.83;;;3.40;86.50;;;5.17;60.99;97583.25;5033164;28;20077;-62
2024/02/29 07:21:16;;;;;;;41.70;21.17;;;3.50;86.70;;;5.21;60.45;97577.56;5015734;28;20060;-62
2024/02/29 07:23:44;;;;;;;42.83;18.97;;;3.50;86.70;;;5.24;60.65;97577.34;5015981;28;20049;-63
2024/02/29 07:26:12;;;;;;;38.50;19.20;;;3.50;86.70;;;5.25;60.59;97581.66;5029551;28;20430;-63
2024/02/29 07:28:40;;;;;;;40.07;20.37;;;3.60;86.60;;;5.31;60.86;97575.84;5033144;28;20045;-63
2024/02/29 07:31:07;;;;;;;37.27;18.57;;;3.70;86.30;;;5.35;61.24;97573.81;5033501;28;20045;-63
2024/02/29 07:33:37;;;;;;;43.47;22.40;;;3.70;86.20;;;5.39;61.33;97569.06;5014563;28;20053;-65
2024/02/29 07:36:04;;;;;;;35.33;20.50;;;3.80;86.00;;;5.43;61.50;97570.47;5016024;28;20053;-64
2024/02/29 07:38:32;;;;;;;40.93;20.57;;;3.80;86.20;;;5.48;61.14;97570.94;5032599;28;20505;-62
2024/02/29 07:41:00;;;;;;;37.97;19.93;;;3.80;86.20;;;5.53;61.07;97581.94;5033057;28;20072;-62
2024/02/29 07:43:27;;;;;;;38.67;18.73;;;3.90;86.20;;;5.56;61.53;97576.38;5033108;28;20048;-63
2024/02/29 07:45:55;;;;;;;45.70;21.57;;;4.00;85.80;;;5.62;61.33;97583.81;5033178;28;20052;-63
2024/02/29 07:48:24;;;;;;;40.13;19.37;;;4.10;85.80;;;5.69;61.30;97577.00;5032577;28;20045;-63
2024/02/29 07:50:52;;;;;;;41.23;20.63;;;4.10;85.60;;;5.73;61.29;97573.13;5032862;28;20053;-62
2024/02/29 07:53:22;;;;;;;38.17;19.80;;;4.10;85.80;;;5.79;61.12;97571.78;5015053;28;20507;-62
2024/02/29 07:55:50;;;;;;;40.10;21.10;;;4.20;85.80;;;5.79;60.95;97571.78;5032706;28;20041;-61
2024/02/29 07:58:18;;;;;;;37.00;18.13;;;4.10;85.80;;;5.84;61.25;97577.50;5031979;28;20057;-61
2024/02/29 08:00:46;;;;;;;34.30;20.87;;;4.20;85.90;;;5.85;61.24;97563.31;5015402;28;20048;-61
2024/02/29 08:03:14;;;;;;;44.50;21.27;;;4.20;85.90;;;5.88;60.94;97568.34;5032676;28;20050;-62
2024/02/29 08:05:42;;;;;;;32.83;17.60;;;4.30;85.70;;;5.96;61.22;97565.06;5033219;28;20057;-61
2024/02/29 08:08:11;;;;;;;35.57;19.97;;;4.30;85.70;;;6.01;61.17;97570.78;5032145;28;20052;-61
2024/02/29 08:10:39;;;;;;;39.00;19.53;;;4.40;85.80;;;6.07;61.45;97562.31;5032701;28;20060;-62
2024/02/29 08:13:06;;;;;;;43.17;19.77;;;4.40;85.90;;;6.13;61.62;97568.00;5032249;28;20053;-61
2024/02/29 08:15:34;;;;;;;39.50;19.43;;;4.50;86.10;;;6.15;61.64;97556.34;5032319;28;20052;-61
2024/02/29 08:18:02;;;;;;;41.47;19.53;;;4.60;85.70;;;6.23;61.79;97555.66;5031548;28;20042;-60
2024/02/29 08:20:29;;;;;;;41.97;20.20;;;4.60;85.60;;;6.30;61.06;97559.41;5032428;28;20052;-61
2024/02/29 08:22:57;;;;;;;38.67;20.87;;;4.70;85.50;;;6.35;61.15;97553.75;5032456;28;20042;-61
2024/02/29 08:25:26;;;;;;;37.73;18.20;;;4.70;85.30;;;6.39;61.46;97555.13;5032282;28;20045;-61
2024/02/29 08:27:54;;;;;;;38.27;19.13;;;4.70;85.20;;;6.43;61.05;97560.00;5031836;28;20038;-61
2024/02/29 08:30:23;;;;;;;39.97;21.33;;;4.80;84.90;;;6.49;61.06;97558.63;5023168;28;20045;-61
2024/02/29 08:32:50;;;;;;;37.80;19.47;;;4.80;84.80;;;6.54;61.04;97555.59;5025160;28;20049;-61
2024/02/29 08:35:18;;;;;;;39.00;20.27;;;4.90;85.00;;;6.58;60.94;97554.34;5031023;28;20046;-61
2024/02/29 08:37:46;;;;;;;40.10;20.90;;;5.00;84.80;;;6.64;60.82;97557.25;5011518;28;20048;-61
2024/02/29 08:40:14;;;;;;;33.83;20.20;;;5.00;84.70;;;6.69;61.13;97551.56;5030112;28;20045;-61
2024/02/29 08:42:41;;;;;;;38.17;20.07;;;5.10;84.50;;;6.72;61.23;97559.19;5031502;28;20049;-61
2024/02/29 08:45:09;;;;;;;35.87;18.20;;;5.20;84.20;;;6.76;60.58;97554.47;5032028;28;20113;-61
2024/02/29 08:47:37;;;;;;;35.10;17.97;;;5.20;83.80;;;6.80;61.01;97537.34;5031386;28;20041;-61
2024/02/29 08:50:06;;;;;;;34.03;19.60;;;5.30;84.00;;;6.86;60.79;97544.72;5031967;28;20049;-62
2024/02/29 08:52:34;;;;;;;33.40;17.60;;;5.20;84.10;;;6.89;60.90;97541.78;5005961;28;20057;-61
2024/02/29 08:55:01;;;;;;;36.97;19.20;;;5.30;84.20;;;6.95;60.76;97532.47;5014178;28;20042;-62
2024/02/29 08:57:29;;;;;;;34.00;18.00;;;5.40;84.00;;;6.99;61.20;97531.19;5030842;28;20042;-61
2024/02/29 08:59:56;;;;;;;40.40;20.80;;;5.40;83.80;;;7.03;60.35;97529.94;5031295;28;20045;-61
2024/02/29 09:02:24;;;;;;;34.77;18.60;;;5.40;83.10;;;7.06;60.91;97522.53;5031369;28;20506;-61
2024/02/29 09:04:53;;;;;;;35.20;18.10;;;5.50;83.60;;;7.12;60.57;97525.63;5030663;28;20049;-62
2024/02/29 09:07:20;;;;;;;37.17;19.30;;;5.60;83.40;;;7.15;60.53;97523.50;5031342;28;20483;-61
2024/02/29 09:09:48;;;;;;;33.03;18.50;;;5.70;83.00;;;7.20;60.62;97513.31;5031001;28;20053;-61
2024/02/29 09:12:17;;;;;;;36.17;18.47;;;5.60;83.00;;;7.26;60.53;97519.84;5029376;28;20490;-61
2024/02/29 09:14:46;;;;;;;42.47;18.87;;;5.70;83.30;;;7.29;60.56;97515.09;5020566;28;20050;-61
2024/02/29 09:17:14;;;;;;;32.63;17.60;;;5.70;83.00;;;7.35;60.86;97508.41;5023838;28;20053;-61
2024/02/29 09:19:42;;;;;;;36.10;18.97;;;5.80;83.00;;;7.40;60.40;97508.78;5024511;28;20499;-61
2024/02/29 09:22:10;;;;;;;31.70;17.87;;;5.80;82.80;;;7.45;60.38;97503.91;5025889;28;20045;-61
2024/02/29 09:24:37;;;;;;;32.63;20.13;;;5.90;82.70;;;7.51;60.59;97493.72;5024838;28;20052;-61
2024/02/29 09:27:05;;;;;;;35.73;18.77;;;6.00;82.50;;;7.56;60.33;97499.41;5025766;28;20465;-61
2024/02/29 09:29:33;;;;;;;38.00;19.30;;;6.00;82.20;;;7.60;60.58;97501.63;5009043;28;20045;-61
2024/02/29 09:32:03;;;;;;;32.03;18.73;;;6.10;82.20;;;7.65;60.62;97499.34;5027463;28;20057;-61
2024/02/29 09:34:31;;;;;;;35.27;18.60;;;6.20;81.80;;;7.71;60.74;97495.28;5041294;28;20057;-61
2024/02/29 09:37:05;;;;;;;32.17;19.35;;;6.20;81.70;;;7.75;60.42;97488.72;5025129;28;20048;-61
2024/02/29 09:39:33;;;;;;;30.03;16.53;;;6.30;81.40;;;7.80;60.40;97489.09;5024735;28;20049;-61
2024/02/29 09:42:01;;;;;;;37.40;18.70;;;6.30;81.10;;;7.85;60.48;97484.22;5027409;28;20042;-60
2024/02/29 09:44:44;;;;;;;32.13;18.47;;;6.40;81.00;;;7.91;60.57;97484.56;5011262;28;20507;-61
2024/02/29 09:47:13;;;;;;;29.57;17.20;;;6.50;81.00;;;7.97;60.39;97476.03;4992907;28;20037;-61
2024/02/29 09:49:41;;;;;;;32.93;19.57;;;6.60;80.80;;;8.02;60.03;97468.47;5008435;28;20076;-60
2024/02/29 09:52:13;;;;;;;32.90;18.00;;;6.60;80.30;;;8.05;60.14;97461.06;5023376;28;20056;-61
2024/02/29 09:54:41;;;;;;;41.47;18.77;;;6.60;81.10;;;8.11;60.05;97458.81;5024477;28;20515;-61
2024/02/29 09:57:13;;;;;;;38.57;19.80;;;6.70;80.30;;;8.15;60.10;97453.03;5024422;28;20037;-60
2024/02/29 09:59:42;;;;;;;34.87;18.13;;;6.70;80.10;;;8.20;60.10;97448.13;5039954;28;20053;-60
2024/02/29 10:02:17;;;;;;;37.97;18.77;;;6.80;80.30;;;8.27;59.76;97443.03;5025926;28;20399;-61
2024/02/29 10:04:46;;;;;;;33.73;17.33;;;6.80;80.60;;;8.32;60.03;97439.91;5023851;28;20038;-61
2024/02/29 10:07:14;;;;;;;29.77;17.30;;;6.90;80.50;;;8.34;59.86;97433.50;5023956;28;20042;-61
2024/02/29 10:09:42;;;;;;;29.93;16.30;;;6.90;79.60;;;8.39;60.01;97433.03;5025937;28;20056;-61
2024/02/29 10:12:17;;;;;;;33.63;18.00;;;6.90;79.70;;;8.43;59.71;97422.00;5030571;28;20050;-61
2024/02/29 10:14:46;;;;;;;35.33;18.63;;;7.00;79.60;;;8.48;59.77;97427.66;5023164;28;20041;-61
2024/02/29 10:17:13;;;;;;;34.30;16.37;;;7.10;79.20;;;8.53;59.58;97418.41;5034253;28;20517;-62
2024/02/29 10:19:41;;;;;;;28.97;17.63;;;7.10;79.00;;;8.58;59.43;97414.31;5033709;28;20049;-61
2024/02/29 10:22:08;;;;;;;30.07;17.47;;;7.20;78.50;;;8.62;59.43;97414.84;5011062;28;20045;-61
2024/02/29 10:24:36;;;;;;;30.13;17.20;;;7.20;78.10;;;8.66;59.39;97411.72;5012916;28;20033;-61